McMilan Corner, Arkansas
Current Conditions -  °F | °C
As of 11:53 AM on Saturday 20 Dec 2014 (Local Time) from KGLH Reporting Station
Clear Clear  
Wind Chill: 50°   Ceiling: Unl
Heat Index: 50°   Visibility: 8mi
Dew Point: 38°   Wind: 6mph
Humidity: 63%   Direction: 30°NNE
Pressure: 30.24"   Gusts: NA
Location:  33.3324°N, 91.3183°W
Report Text: KGLH 201753Z AUTO 03005KT 8SM CLR 10/03 A3024 RMK AO2 SLP249 T01000033 10100 20028 58007
Loading
Personal Weather Stations






























Interactive Weather Map New forecast layout! Learn more

10-Day Weather Forecast

Advertisements
Track Severe Weather on mobile